MCY weather

Sunshine Coast Airport
Maroochydore, Queensland, Australia

Public forecast

Using degrees Celsius for public forecast. Weather courtesy of forecast.io.

METAR (pilot weather report)

Closest report is Brisbane International Airport, 46.9 nm (86.9 km) S. Retrieved 2017/12/10 21:00 UTC (2 hours ago):

YBBN 102100Z 17006KT 9999 FEW014 23/17 Q1018 NOSIG

TAF (pilot weather forecast)

Closest forecast is Brisbane International Airport, 46.9 nm (86.9 km) S. Retrieved 2017/12/10 18:00 UTC (5 hours ago):

TAF YBBN 101716Z 1018/1124 20007KT 9999 FEW020 FM102300 14014KT 9999 -SHRA SCT030 FM110700 14014KT 9999 FEW025 FM111300 20005KT 9999 FEW020 FM111600 20005KT 9999 FEW020 BKN040 FM112200 14010KT 9999 SCT035